sensor_id;sensor_type;location;lat;lon;timestamp;P1;durP1;ratioP1;P2;durP2;ratioP2
64959;SDS011;51487;52.266;10.542;2023-08-17T00:01:41;3.22;;;1.40;;
64959;SDS011;51487;52.266;10.542;2023-08-17T00:04:06;5.18;;;1.83;;
64959;SDS011;51487;52.266;10.542;2023-08-17T00:06:32;3.80;;;1.60;;
64959;SDS011;51487;52.266;10.542;2023-08-17T00:08:58;4.88;;;1.55;;
64959;SDS011;51487;52.266;10.542;2023-08-17T00:11:23;3.15;;;1.50;;
64959;SDS011;51487;52.266;10.542;2023-08-17T00:13:49;4.38;;;1.88;;
64959;SDS011;51487;52.266;10.542;2023-08-17T00:16:15;5.28;;;1.80;;
64959;SDS011;51487;52.266;10.542;2023-08-17T00:18:41;6.05;;;1.55;;
64959;SDS011;51487;52.266;10.542;2023-08-17T00:21:06;4.97;;;1.83;;
64959;SDS011;51487;52.266;10.542;2023-08-17T00:23:32;2.00;;;1.50;;
64959;SDS011;51487;52.266;10.542;2023-08-17T00:25:57;4.68;;;1.60;;
64959;SDS011;51487;52.266;10.542;2023-08-17T00:28:23;6.80;;;1.90;;
64959;SDS011;51487;52.266;10.542;2023-08-17T00:30:50;3.88;;;1.50;;
64959;SDS011;51487;52.266;10.542;2023-08-17T00:33:16;4.65;;;1.77;;
64959;SDS011;51487;52.266;10.542;2023-08-17T00:35:41;2.70;;;1.52;;
64959;SDS011;51487;52.266;10.542;2023-08-17T00:38:08;3.50;;;1.80;;
64959;SDS011;51487;52.266;10.542;2023-08-17T00:40:34;2.80;;;1.50;;
64959;SDS011;51487;52.266;10.542;2023-08-17T00:42:59;9.93;;;2.10;;
64959;SDS011;51487;52.266;10.542;2023-08-17T00:45:25;7.40;;;2.08;;
64959;SDS011;51487;52.266;10.542;2023-08-17T00:47:53;3.85;;;2.00;;
64959;SDS011;51487;52.266;10.542;2023-08-17T00:50:21;5.80;;;2.00;;
64959;SDS011;51487;52.266;10.542;2023-08-17T00:52:48;5.22;;;1.80;;
64959;SDS011;51487;52.266;10.542;2023-08-17T00:55:16;4.22;;;1.83;;
64959;SDS011;51487;52.266;10.542;2023-08-17T00:57:42;3.13;;;1.67;;
64959;SDS011;51487;52.266;10.542;2023-08-17T01:00:09;5.20;;;1.88;;
64959;SDS011;51487;52.266;10.542;2023-08-17T01:02:38;5.85;;;2.03;;
64959;SDS011;51487;52.266;10.542;2023-08-17T01:05:06;7.38;;;1.95;;
64959;SDS011;51487;52.266;10.542;2023-08-17T01:07:32;5.35;;;2.20;;
64959;SDS011;51487;52.266;10.542;2023-08-17T01:09:57;6.72;;;2.20;;
64959;SDS011;51487;52.266;10.542;2023-08-17T01:12:31;2.70;;;1.80;;
64959;SDS011;51487;52.266;10.542;2023-08-17T01:15:18;5.80;;;1.90;;
64959;SDS011;51487;52.266;10.542;2023-08-17T01:20:48;6.25;;;2.67;;
64959;SDS011;51487;52.266;10.542;2023-08-17T01:23:15;6.63;;;2.80;;
64959;SDS011;51487;52.266;10.542;2023-08-17T01:25:41;8.60;;;2.50;;
64959;SDS011;51487;52.266;10.542;2023-08-17T01:28:06;6.85;;;2.60;;
64959;SDS011;51487;52.266;10.542;2023-08-17T01:31:19;5.32;;;2.50;;
64959;SDS011;51487;52.266;10.542;2023-08-17T01:33:29;5.88;;;2.58;;
64959;SDS011;51487;52.266;10.542;2023-08-17T01:36:28;7.05;;;3.08;;
64959;SDS011;51487;52.266;10.542;2023-08-17T01:38:59;9.35;;;3.40;;
64959;SDS011;51487;52.266;10.542;2023-08-17T01:41:26;5.30;;;2.83;;
64959;SDS011;51487;52.266;10.542;2023-08-17T01:43:53;7.15;;;3.00;;
64959;SDS011;51487;52.266;10.542;2023-08-17T01:46:21;10.02;;;3.22;;
64959;SDS011;51487;52.266;10.542;2023-08-17T01:48:46;6.85;;;3.35;;
64959;SDS011;51487;52.266;10.542;2023-08-17T01:51:17;8.63;;;3.40;;
64959;SDS011;51487;52.266;10.542;2023-08-17T01:53:45;7.57;;;3.97;;
64959;SDS011;51487;52.266;10.542;2023-08-17T01:56:11;5.80;;;3.53;;
64959;SDS011;51487;52.266;10.542;2023-08-17T01:58:36;7.43;;;3.85;;
64959;SDS011;51487;52.266;10.542;2023-08-17T02:01:02;6.38;;;3.22;;
64959;SDS011;51487;52.266;10.542;2023-08-17T02:03:27;9.70;;;3.50;;
64959;SDS011;51487;52.266;10.542;2023-08-17T02:05:55;6.00;;;3.30;;
64959;SDS011;51487;52.266;10.542;2023-08-17T02:08:22;6.65;;;3.40;;
64959;SDS011;51487;52.266;10.542;2023-08-17T02:10:47;6.55;;;3.50;;
64959;SDS011;51487;52.266;10.542;2023-08-17T02:13:14;6.00;;;3.75;;
64959;SDS011;51487;52.266;10.542;2023-08-17T02:15:40;7.68;;;3.85;;
64959;SDS011;51487;52.266;10.542;2023-08-17T02:18:06;6.65;;;3.20;;
64959;SDS011;51487;52.266;10.542;2023-08-17T02:20:32;6.28;;;3.42;;
64959;SDS011;51487;52.266;10.542;2023-08-17T02:22:57;7.03;;;3.38;;
64959;SDS011;51487;52.266;10.542;2023-08-17T02:25:23;4.93;;;3.33;;
64959;SDS011;51487;52.266;10.542;2023-08-17T02:27:49;8.05;;;3.40;;
64959;SDS011;51487;52.266;10.542;2023-08-17T02:30:14;5.03;;;3.40;;
64959;SDS011;51487;52.266;10.542;2023-08-17T02:32:39;6.53;;;3.97;;
64959;SDS011;51487;52.266;10.542;2023-08-17T02:35:06;4.35;;;2.80;;
64959;SDS011;51487;52.266;10.542;2023-08-17T02:37:32;4.03;;;3.00;;
64959;SDS011;51487;52.266;10.542;2023-08-17T02:39:57;4.95;;;2.97;;
64959;SDS011;51487;52.266;10.542;2023-08-17T02:42:23;3.95;;;2.70;;
64959;SDS011;51487;52.266;10.542;2023-08-17T02:44:49;5.95;;;2.95;;
64959;SDS011;51487;52.266;10.542;2023-08-17T02:47:14;6.93;;;3.15;;
64959;SDS011;51487;52.266;10.542;2023-08-17T02:49:40;5.47;;;2.95;;
64959;SDS011;51487;52.266;10.542;2023-08-17T02:52:05;4.60;;;2.65;;
64959;SDS011;51487;52.266;10.542;2023-08-17T02:54:31;3.53;;;2.70;;
64959;SDS011;51487;52.266;10.542;2023-08-17T02:56:56;3.53;;;2.83;;
64959;SDS011;51487;52.266;10.542;2023-08-17T02:59:22;3.13;;;2.63;;
64959;SDS011;51487;52.266;10.542;2023-08-17T03:01:48;3.60;;;2.95;;
64959;SDS011;51487;52.266;10.542;2023-08-17T03:04:14;4.15;;;2.80;;
64959;SDS011;51487;52.266;10.542;2023-08-17T03:06:39;5.15;;;3.08;;
64959;SDS011;51487;52.266;10.542;2023-08-17T03:09:05;3.92;;;2.63;;
64959;SDS011;51487;52.266;10.542;2023-08-17T03:11:30;5.10;;;3.22;;
64959;SDS011;51487;52.266;10.542;2023-08-17T03:13:56;4.57;;;2.92;;
64959;SDS011;51487;52.266;10.542;2023-08-17T03:16:25;3.55;;;2.88;;
64959;SDS011;51487;52.266;10.542;2023-08-17T03:18:52;4.70;;;3.30;;
64959;SDS011;51487;52.266;10.542;2023-08-17T03:21:18;3.88;;;2.95;;
64959;SDS011;51487;52.266;10.542;2023-08-17T03:23:44;3.38;;;3.00;;
64959;SDS011;51487;52.266;10.542;2023-08-17T03:26:10;2.83;;;2.63;;
64959;SDS011;51487;52.266;10.542;2023-08-17T03:28:35;5.80;;;3.17;;
64959;SDS011;51487;52.266;10.542;2023-08-17T03:31:01;6.38;;;3.70;;
64959;SDS011;51487;52.266;10.542;2023-08-17T03:33:28;3.65;;;3.25;;
64959;SDS011;51487;52.266;10.542;2023-08-17T03:35:53;4.93;;;3.40;;
64959;SDS011;51487;52.266;10.542;2023-08-17T03:38:19;4.82;;;3.45;;
64959;SDS011;51487;52.266;10.542;2023-08-17T03:40:44;4.45;;;3.35;;
64959;SDS011;51487;52.266;10.542;2023-08-17T03:43:11;3.38;;;3.08;;
64959;SDS011;51487;52.266;10.542;2023-08-17T03:45:36;3.72;;;2.92;;
64959;SDS011;51487;52.266;10.542;2023-08-17T03:48:01;4.45;;;3.20;;
64959;SDS011;51487;52.266;10.542;2023-08-17T03:50:27;3.80;;;2.92;;
64959;SDS011;51487;52.266;10.542;2023-08-17T03:52:53;5.70;;;3.28;;
64959;SDS011;51487;52.266;10.542;2023-08-17T03:55:18;3.60;;;3.08;;
64959;SDS011;51487;52.266;10.542;2023-08-17T03:57:44;5.68;;;3.10;;
64959;SDS011;51487;52.266;10.542;2023-08-17T04:00:09;6.38;;;3.50;;
64959;SDS011;51487;52.266;10.542;2023-08-17T04:02:35;5.78;;;2.80;;
64959;SDS011;51487;52.266;10.542;2023-08-17T04:05:02;5.32;;;2.72;;
64959;SDS011;51487;52.266;10.542;2023-08-17T04:07:28;3.70;;;2.75;;
64959;SDS011;51487;52.266;10.542;2023-08-17T04:09:53;4.60;;;3.13;;
64959;SDS011;51487;52.266;10.542;2023-08-17T04:12:19;4.22;;;3.00;;
64959;SDS011;51487;52.266;10.542;2023-08-17T04:14:44;4.68;;;2.90;;
64959;SDS011;51487;52.266;10.542;2023-08-17T04:17:10;4.43;;;3.00;;
64959;SDS011;51487;52.266;10.542;2023-08-17T04:19:36;3.10;;;2.80;;
64959;SDS011;51487;52.266;10.542;2023-08-17T04:22:02;4.18;;;2.88;;
64959;SDS011;51487;52.266;10.542;2023-08-17T04:24:28;3.40;;;2.80;;
64959;SDS011;51487;52.266;10.542;2023-08-17T04:26:53;3.53;;;2.70;;
64959;SDS011;51487;52.266;10.542;2023-08-17T04:29:18;4.65;;;3.03;;
64959;SDS011;51487;52.266;10.542;2023-08-17T04:31:44;3.95;;;2.85;;
64959;SDS011;51487;52.266;10.542;2023-08-17T04:34:10;4.15;;;3.00;;
64959;SDS011;51487;52.266;10.542;2023-08-17T04:36:36;4.22;;;3.10;;
64959;SDS011;51487;52.266;10.542;2023-08-17T04:39:02;3.92;;;3.00;;
64959;SDS011;51487;52.266;10.542;2023-08-17T04:41:29;3.45;;;3.00;;
64959;SDS011;51487;52.266;10.542;2023-08-17T04:43:55;4.88;;;3.00;;
64959;SDS011;51487;52.266;10.542;2023-08-17T04:46:21;4.50;;;3.00;;
64959;SDS011;51487;52.266;10.542;2023-08-17T04:48:46;4.30;;;3.30;;
64959;SDS011;51487;52.266;10.542;2023-08-17T04:51:12;7.47;;;3.22;;
64959;SDS011;51487;52.266;10.542;2023-08-17T04:53:37;4.45;;;3.45;;
64959;SDS011;51487;52.266;10.542;2023-08-17T04:56:03;5.28;;;3.47;;
64959;SDS011;51487;52.266;10.542;2023-08-17T04:58:29;4.60;;;3.20;;
64959;SDS011;51487;52.266;10.542;2023-08-17T05:00:55;4.45;;;3.45;;
64959;SDS011;51487;52.266;10.542;2023-08-17T05:03:20;4.18;;;3.50;;
64959;SDS011;51487;52.266;10.542;2023-08-17T05:05:46;4.00;;;3.30;;
64959;SDS011;51487;52.266;10.542;2023-08-17T05:08:11;4.07;;;3.45;;
64959;SDS011;51487;52.266;10.542;2023-08-17T05:10:37;3.90;;;3.50;;
64959;SDS011;51487;52.266;10.542;2023-08-17T05:13:02;3.42;;;3.13;;
64959;SDS011;51487;52.266;10.542;2023-08-17T05:15:28;4.00;;;3.30;;
64959;SDS011;51487;52.266;10.542;2023-08-17T05:17:53;4.53;;;3.70;;
64959;SDS011;51487;52.266;10.542;2023-08-17T05:20:19;10.30;;;3.78;;
64959;SDS011;51487;52.266;10.542;2023-08-17T05:22:46;3.92;;;3.17;;
64959;SDS011;51487;52.266;10.542;2023-08-17T05:25:12;6.05;;;3.47;;
64959;SDS011;51487;52.266;10.542;2023-08-17T05:27:37;4.97;;;3.60;;
64959;SDS011;51487;52.266;10.542;2023-08-17T05:30:03;5.35;;;3.78;;
64959;SDS011;51487;52.266;10.542;2023-08-17T05:32:29;4.70;;;3.78;;
64959;SDS011;51487;52.266;10.542;2023-08-17T05:34:56;4.00;;;3.38;;
64959;SDS011;51487;52.266;10.542;2023-08-17T05:37:22;5.25;;;3.25;;
64959;SDS011;51487;52.266;10.542;2023-08-17T05:39:47;3.55;;;2.92;;
64959;SDS011;51487;52.266;10.542;2023-08-17T05:42:13;4.70;;;3.13;;
64959;SDS011;51487;52.266;10.542;2023-08-17T05:44:38;4.57;;;3.30;;
64959;SDS011;51487;52.266;10.542;2023-08-17T05:47:04;3.58;;;3.10;;
64959;SDS011;51487;52.266;10.542;2023-08-17T05:49:29;4.18;;;3.03;;
64959;SDS011;51487;52.266;10.542;2023-08-17T05:51:55;3.47;;;3.17;;
64959;SDS011;51487;52.266;10.542;2023-08-17T05:54:20;4.65;;;3.47;;
64959;SDS011;51487;52.266;10.542;2023-08-17T05:56:46;4.15;;;3.50;;
64959;SDS011;51487;52.266;10.542;2023-08-17T05:59:12;3.70;;;3.40;;
64959;SDS011;51487;52.266;10.542;2023-08-17T06:01:39;5.82;;;3.97;;
64959;SDS011;51487;52.266;10.542;2023-08-17T06:04:05;3.97;;;3.58;;
64959;SDS011;51487;52.266;10.542;2023-08-17T06:06:32;3.72;;;3.42;;
64959;SDS011;51487;52.266;10.542;2023-08-17T06:08:57;3.97;;;3.58;;
64959;SDS011;51487;52.266;10.542;2023-08-17T06:11:23;3.88;;;3.50;;
64959;SDS011;51487;52.266;10.542;2023-08-17T06:13:49;4.10;;;3.35;;
64959;SDS011;51487;52.266;10.542;2023-08-17T06:16:14;4.53;;;3.33;;
64959;SDS011;51487;52.266;10.542;2023-08-17T06:18:41;3.90;;;3.38;;
64959;SDS011;51487;52.266;10.542;2023-08-17T06:21:06;4.45;;;3.40;;
64959;SDS011;51487;52.266;10.542;2023-08-17T06:23:33;3.80;;;3.20;;
64959;SDS011;51487;52.266;10.542;2023-08-17T06:25:59;3.10;;;2.80;;
64959;SDS011;51487;52.266;10.542;2023-08-17T06:28:25;3.75;;;2.88;;
64959;SDS011;51487;52.266;10.542;2023-08-17T06:30:52;4.15;;;2.78;;
64959;SDS011;51487;52.266;10.542;2023-08-17T06:33:19;3.30;;;2.70;;
64959;SDS011;51487;52.266;10.542;2023-08-17T06:35:45;3.50;;;2.92;;
64959;SDS011;51487;52.266;10.542;2023-08-17T06:38:10;2.78;;;2.45;;
64959;SDS011;51487;52.266;10.542;2023-08-17T06:40:37;3.40;;;2.67;;
64959;SDS011;51487;52.266;10.542;2023-08-17T06:43:02;5.63;;;3.00;;
64959;SDS011;51487;52.266;10.542;2023-08-17T06:45:28;4.38;;;2.75;;
64959;SDS011;51487;52.266;10.542;2023-08-17T06:47:56;3.90;;;2.58;;
64959;SDS011;51487;52.266;10.542;2023-08-17T06:50:21;3.83;;;2.70;;
64959;SDS011;51487;52.266;10.542;2023-08-17T06:52:47;4.32;;;2.90;;
64959;SDS011;51487;52.266;10.542;2023-08-17T06:55:12;5.40;;;2.92;;
64959;SDS011;51487;52.266;10.542;2023-08-17T06:57:38;2.63;;;2.42;;
64959;SDS011;51487;52.266;10.542;2023-08-17T07:00:03;4.03;;;2.80;;
64959;SDS011;51487;52.266;10.542;2023-08-17T07:02:32;3.95;;;2.70;;
64959;SDS011;51487;52.266;10.542;2023-08-17T07:04:59;3.00;;;2.70;;
64959;SDS011;51487;52.266;10.542;2023-08-17T07:07:25;3.22;;;2.63;;
64959;SDS011;51487;52.266;10.542;2023-08-17T07:09:51;2.63;;;2.42;;
64959;SDS011;51487;52.266;10.542;2023-08-17T07:12:17;2.80;;;2.40;;
64959;SDS011;51487;52.266;10.542;2023-08-17T07:14:44;2.90;;;2.67;;
64959;SDS011;51487;52.266;10.542;2023-08-17T07:17:09;3.65;;;2.70;;
64959;SDS011;51487;52.266;10.542;2023-08-17T07:19:35;2.60;;;2.40;;
64959;SDS011;51487;52.266;10.542;2023-08-17T07:22:00;3.13;;;2.60;;
64959;SDS011;51487;52.266;10.542;2023-08-17T07:24:26;3.47;;;2.80;;
64959;SDS011;51487;52.266;10.542;2023-08-17T07:26:51;2.88;;;2.53;;
64959;SDS011;51487;52.266;10.542;2023-08-17T07:29:17;3.38;;;3.00;;
64959;SDS011;51487;52.266;10.542;2023-08-17T07:31:42;3.83;;;2.85;;
64959;SDS011;51487;52.266;10.542;2023-08-17T07:34:08;3.33;;;2.92;;
64959;SDS011;51487;52.266;10.542;2023-08-17T07:36:34;3.00;;;2.70;;
64959;SDS011;51487;52.266;10.542;2023-08-17T07:38:59;3.22;;;2.50;;
64959;SDS011;51487;52.266;10.542;2023-08-17T07:41:25;3.00;;;2.72;;
64959;SDS011;51487;52.266;10.542;2023-08-17T07:43:52;2.85;;;2.55;;
64959;SDS011;51487;52.266;10.542;2023-08-17T07:46:17;3.25;;;2.30;;
64959;SDS011;51487;52.266;10.542;2023-08-17T07:48:43;3.13;;;2.83;;
64959;SDS011;51487;52.266;10.542;2023-08-17T07:51:08;3.20;;;2.90;;
64959;SDS011;51487;52.266;10.542;2023-08-17T07:53:34;3.35;;;2.40;;
64959;SDS011;51487;52.266;10.542;2023-08-17T07:56:00;3.35;;;3.05;;
64959;SDS011;51487;52.266;10.542;2023-08-17T07:58:26;3.90;;;2.70;;
64959;SDS011;51487;52.266;10.542;2023-08-17T08:00:51;3.70;;;3.20;;
64959;SDS011;51487;52.266;10.542;2023-08-17T08:03:17;3.22;;;2.92;;
64959;SDS011;51487;52.266;10.542;2023-08-17T08:05:43;3.40;;;3.10;;
64959;SDS011;51487;52.266;10.542;2023-08-17T08:08:08;3.45;;;3.15;;
64959;SDS011;51487;52.266;10.542;2023-08-17T08:10:34;4.90;;;3.72;;
64959;SDS011;51487;52.266;10.542;2023-08-17T08:12:59;4.03;;;3.63;;
64959;SDS011;51487;52.266;10.542;2023-08-17T08:15:25;4.03;;;3.63;;
64959;SDS011;51487;52.266;10.542;2023-08-17T08:17:50;5.97;;;3.80;;
64959;SDS011;51487;52.266;10.542;2023-08-17T08:20:16;3.90;;;3.60;;
64959;SDS011;51487;52.266;10.542;2023-08-17T08:22:41;4.35;;;3.70;;
64959;SDS011;51487;52.266;10.542;2023-08-17T08:25:07;3.50;;;3.20;;
64959;SDS011;51487;52.266;10.542;2023-08-17T08:27:33;3.90;;;3.55;;
64959;SDS011;51487;52.266;10.542;2023-08-17T08:29:58;4.55;;;3.95;;
64959;SDS011;51487;52.266;10.542;2023-08-17T08:32:24;4.32;;;3.92;;
64959;SDS011;51487;52.266;10.542;2023-08-17T08:34:49;4.40;;;3.63;;
64959;SDS011;51487;52.266;10.542;2023-08-17T08:37:15;4.25;;;3.35;;
64959;SDS011;51487;52.266;10.542;2023-08-17T08:39:53;3.50;;;3.20;;
64959;SDS011;51487;52.266;10.542;2023-08-17T08:42:20;3.55;;;3.10;;
64959;SDS011;51487;52.266;10.542;2023-08-17T08:44:47;2.90;;;2.60;;
64959;SDS011;51487;52.266;10.542;2023-08-17T08:47:14;2.40;;;2.20;;
64959;SDS011;51487;52.266;10.542;2023-08-17T08:49:47;2.80;;;2.30;;
64959;SDS011;51487;52.266;10.542;2023-08-17T08:52:31;2.30;;;2.10;;
64959;SDS011;51487;52.266;10.542;2023-08-17T08:57:43;2.13;;;1.70;;
64959;SDS011;51487;52.266;10.542;2023-08-17T09:00:08;2.00;;;1.75;;
64959;SDS011;51487;52.266;10.542;2023-08-17T09:02:37;1.90;;;1.80;;
64959;SDS011;51487;52.266;10.542;2023-08-17T09:05:04;1.80;;;1.70;;
64959;SDS011;51487;52.266;10.542;2023-08-17T09:07:33;2.38;;;2.00;;
64959;SDS011;51487;52.266;10.542;2023-08-17T09:10:01;1.65;;;1.55;;
64959;SDS011;51487;52.266;10.542;2023-08-17T09:12:28;1.67;;;1.58;;
64959;SDS011;51487;52.266;10.542;2023-08-17T09:14:55;1.80;;;1.52;;
64959;SDS011;51487;52.266;10.542;2023-08-17T09:17:27;1.42;;;1.30;;
64959;SDS011;51487;52.266;10.542;2023-08-17T09:19:53;1.55;;;1.45;;
64959;SDS011;51487;52.266;10.542;2023-08-17T09:22:26;1.48;;;1.40;;
64959;SDS011;51487;52.266;10.542;2023-08-17T09:25:04;1.60;;;1.50;;
64959;SDS011;51487;52.266;10.542;2023-08-17T09:27:31;1.50;;;1.40;;
64959;SDS011;51487;52.266;10.542;2023-08-17T09:30:01;1.40;;;1.30;;
64959;SDS011;51487;52.266;10.542;2023-08-17T09:32:31;1.40;;;1.30;;
64959;SDS011;51487;52.266;10.542;2023-08-17T09:35:02;1.60;;;1.50;;
64959;SDS011;51487;52.266;10.542;2023-08-17T09:37:30;1.50;;;1.40;;
64959;SDS011;51487;52.266;10.542;2023-08-17T09:39:56;2.10;;;1.50;;
64959;SDS011;51487;52.266;10.542;2023-08-17T09:42:22;1.70;;;1.60;;
64959;SDS011;51487;52.266;10.542;2023-08-17T09:44:50;2.00;;;1.40;;
64959;SDS011;51487;52.266;10.542;2023-08-17T09:47:17;2.20;;;1.50;;
64959;SDS011;51487;52.266;10.542;2023-08-17T09:49:51;2.50;;;1.60;;
64959;SDS011;51487;52.266;10.542;2023-08-17T09:52:21;1.60;;;1.50;;
64959;SDS011;51487;52.266;10.542;2023-08-17T09:54:48;2.00;;;1.80;;
64959;SDS011;51487;52.266;10.542;2023-08-17T09:57:17;3.38;;;2.20;;
64959;SDS011;51487;52.266;10.542;2023-08-17T09:59:42;2.65;;;2.17;;
64959;SDS011;51487;52.266;10.542;2023-08-17T10:02:18;2.67;;;2.13;;
64959;SDS011;51487;52.266;10.542;2023-08-17T10:04:49;2.95;;;1.90;;
64959;SDS011;51487;52.266;10.542;2023-08-17T10:07:21;3.60;;;2.60;;
64959;SDS011;51487;52.266;10.542;2023-08-17T10:09:53;4.15;;;3.20;;
64959;SDS011;51487;52.266;10.542;2023-08-17T10:12:27;4.30;;;3.47;;
64959;SDS011;51487;52.266;10.542;2023-08-17T10:15:02;6.15;;;4.63;;
64959;SDS011;51487;52.266;10.542;2023-08-17T10:17:39;5.30;;;4.43;;
64959;SDS011;51487;52.266;10.542;2023-08-17T10:20:15;7.70;;;4.80;;
64959;SDS011;51487;52.266;10.542;2023-08-17T10:22:53;7.03;;;5.30;;
64959;SDS011;51487;52.266;10.542;2023-08-17T10:25:42;8.10;;;5.18;;
64959;SDS011;51487;52.266;10.542;2023-08-17T10:28:12;7.18;;;5.30;;
64959;SDS011;51487;52.266;10.542;2023-08-17T10:30:39;7.65;;;6.13;;
64959;SDS011;51487;52.266;10.542;2023-08-17T10:33:05;9.07;;;6.97;;
64959;SDS011;51487;52.266;10.542;2023-08-17T10:35:32;8.65;;;6.55;;
64959;SDS011;51487;52.266;10.542;2023-08-17T10:37:59;12.45;;;7.15;;
64959;SDS011;51487;52.266;10.542;2023-08-17T10:40:27;8.93;;;7.15;;
64959;SDS011;51487;52.266;10.542;2023-08-17T10:42:54;12.60;;;6.70;;
64959;SDS011;51487;52.266;10.542;2023-08-17T10:45:27;12.40;;;7.20;;
64959;SDS011;51487;52.266;10.542;2023-08-17T10:50:36;8.38;;;6.72;;
64959;SDS011;51487;52.266;10.542;2023-08-17T10:53:04;10.32;;;7.38;;
64959;SDS011;51487;52.266;10.542;2023-08-17T10:55:39;12.48;;;7.57;;
64959;SDS011;51487;52.266;10.542;2023-08-17T10:58:09;11.23;;;7.43;;
64959;SDS011;51487;52.266;10.542;2023-08-17T11:00:38;10.07;;;7.72;;
64959;SDS011;51487;52.266;10.542;2023-08-17T11:03:05;12.85;;;8.40;;
64959;SDS011;51487;52.266;10.542;2023-08-17T11:08:19;12.27;;;6.70;;
64959;SDS011;51487;52.266;10.542;2023-08-17T11:13:29;13.35;;;7.05;;
64959;SDS011;51487;52.266;10.542;2023-08-17T11:16:00;12.55;;;6.95;;
64959;SDS011;51487;52.266;10.542;2023-08-17T11:18:27;11.63;;;6.90;;
64959;SDS011;51487;52.266;10.542;2023-08-17T11:20:53;11.27;;;7.50;;
64959;SDS011;51487;52.266;10.542;2023-08-17T11:23:20;14.48;;;7.32;;
64959;SDS011;51487;52.266;10.542;2023-08-17T11:25:47;14.70;;;8.30;;
64959;SDS011;51487;52.266;10.542;2023-08-17T11:28:13;11.55;;;7.28;;
64959;SDS011;51487;52.266;10.542;2023-08-17T11:30:39;13.48;;;8.05;;
64959;SDS011;51487;52.266;10.542;2023-08-17T11:33:06;13.73;;;8.50;;
64959;SDS011;51487;52.266;10.542;2023-08-17T11:35:32;14.10;;;8.02;;
64959;SDS011;51487;52.266;10.542;2023-08-17T11:37:58;12.50;;;8.18;;
64959;SDS011;51487;52.266;10.542;2023-08-17T11:40:24;12.55;;;8.02;;
64959;SDS011;51487;52.266;10.542;2023-08-17T11:42:51;14.85;;;8.77;;
64959;SDS011;51487;52.266;10.542;2023-08-17T11:45:17;14.32;;;8.98;;
64959;SDS011;51487;52.266;10.542;2023-08-17T11:47:43;13.90;;;9.43;;
64959;SDS011;51487;52.266;10.542;2023-08-17T11:50:10;14.00;;;8.65;;
64959;SDS011;51487;52.266;10.542;2023-08-17T11:52:37;12.80;;;9.25;;
64959;SDS011;51487;52.266;10.542;2023-08-17T11:55:07;16.48;;;8.35;;
64959;SDS011;51487;52.266;10.542;2023-08-17T11:57:35;12.93;;;8.35;;
64959;SDS011;51487;52.266;10.542;2023-08-17T12:00:02;14.23;;;9.05;;
64959;SDS011;51487;52.266;10.542;2023-08-17T12:02:37;13.93;;;8.20;;
64959;SDS011;51487;52.266;10.542;2023-08-17T12:05:07;16.95;;;9.38;;
64959;SDS011;51487;52.266;10.542;2023-08-17T12:07:34;14.13;;;8.57;;
64959;SDS011;51487;52.266;10.542;2023-08-17T12:10:02;13.27;;;8.20;;
64959;SDS011;51487;52.266;10.542;2023-08-17T12:12:29;15.23;;;9.02;;
64959;SDS011;51487;52.266;10.542;2023-08-17T12:14:56;11.95;;;7.90;;
64959;SDS011;51487;52.266;10.542;2023-08-17T12:17:22;12.95;;;8.50;;
64959;SDS011;51487;52.266;10.542;2023-08-17T12:19:49;14.77;;;9.27;;
64959;SDS011;51487;52.266;10.542;2023-08-17T12:22:18;13.25;;;9.32;;
64959;SDS011;51487;52.266;10.542;2023-08-17T12:24:44;13.52;;;10.05;;
64959;SDS011;51487;52.266;10.542;2023-08-17T12:27:09;13.02;;;8.95;;
64959;SDS011;51487;52.266;10.542;2023-08-17T12:29:47;17.45;;;9.68;;
64959;SDS011;51487;52.266;10.542;2023-08-17T12:32:14;15.65;;;9.55;;
64959;SDS011;51487;52.266;10.542;2023-08-17T12:34:43;13.20;;;9.07;;
64959;SDS011;51487;52.266;10.542;2023-08-17T12:37:09;18.35;;;9.27;;
64959;SDS011;51487;52.266;10.542;2023-08-17T12:39:36;12.15;;;8.10;;
64959;SDS011;51487;52.266;10.542;2023-08-17T12:42:02;13.45;;;8.27;;
64959;SDS011;51487;52.266;10.542;2023-08-17T12:44:31;15.18;;;9.73;;
64959;SDS011;51487;52.266;10.542;2023-08-17T12:46:56;16.02;;;9.00;;
64959;SDS011;51487;52.266;10.542;2023-08-17T12:49:25;14.57;;;9.20;;
64959;SDS011;51487;52.266;10.542;2023-08-17T12:51:51;15.15;;;10.00;;
64959;SDS011;51487;52.266;10.542;2023-08-17T12:54:17;16.13;;;9.60;;
64959;SDS011;51487;52.266;10.542;2023-08-17T12:56:42;15.55;;;9.68;;
64959;SDS011;51487;52.266;10.542;2023-08-17T12:59:09;18.02;;;9.50;;
64959;SDS011;51487;52.266;10.542;2023-08-17T13:01:35;16.55;;;9.30;;
64959;SDS011;51487;52.266;10.542;2023-08-17T13:04:00;16.08;;;9.55;;
64959;SDS011;51487;52.266;10.542;2023-08-17T13:06:25;15.88;;;9.25;;
64959;SDS011;51487;52.266;10.542;2023-08-17T13:08:51;13.90;;;9.13;;
64959;SDS011;51487;52.266;10.542;2023-08-17T13:11:16;19.48;;;10.80;;
64959;SDS011;51487;52.266;10.542;2023-08-17T13:13:42;18.55;;;10.13;;
64959;SDS011;51487;52.266;10.542;2023-08-17T13:16:07;15.52;;;9.77;;
64959;SDS011;51487;52.266;10.542;2023-08-17T13:18:34;16.05;;;9.65;;
64959;SDS011;51487;52.266;10.542;2023-08-17T13:21:00;18.55;;;9.70;;
64959;SDS011;51487;52.266;10.542;2023-08-17T13:23:25;13.77;;;9.00;;
64959;SDS011;51487;52.266;10.542;2023-08-17T13:25:50;15.60;;;9.70;;
64959;SDS011;51487;52.266;10.542;2023-08-17T13:28:16;13.18;;;9.40;;
64959;SDS011;51487;52.266;10.542;2023-08-17T13:30:41;19.33;;;9.70;;
64959;SDS011;51487;52.266;10.542;2023-08-17T13:33:07;15.32;;;9.38;;
64959;SDS011;51487;52.266;10.542;2023-08-17T13:35:33;15.60;;;9.50;;
64959;SDS011;51487;52.266;10.542;2023-08-17T13:37:59;11.60;;;8.27;;
64959;SDS011;51487;52.266;10.542;2023-08-17T13:40:25;11.77;;;7.93;;
64959;SDS011;51487;52.266;10.542;2023-08-17T13:42:50;14.98;;;7.60;;
64959;SDS011;51487;52.266;10.542;2023-08-17T13:45:16;12.98;;;7.03;;
64959;SDS011;51487;52.266;10.542;2023-08-17T13:47:42;13.90;;;7.30;;
64959;SDS011;51487;52.266;10.542;2023-08-17T13:50:08;9.70;;;6.97;;
64959;SDS011;51487;52.266;10.542;2023-08-17T13:52:33;10.73;;;6.78;;
64959;SDS011;51487;52.266;10.542;2023-08-17T13:54:59;14.02;;;6.55;;
64959;SDS011;51487;52.266;10.542;2023-08-17T13:57:25;9.45;;;6.50;;
64959;SDS011;51487;52.266;10.542;2023-08-17T13:59:51;9.32;;;6.40;;
64959;SDS011;51487;52.266;10.542;2023-08-17T14:02:17;10.82;;;6.18;;
64959;SDS011;51487;52.266;10.542;2023-08-17T14:04:43;11.95;;;6.55;;
64959;SDS011;51487;52.266;10.542;2023-08-17T14:07:09;8.63;;;5.65;;
64959;SDS011;51487;52.266;10.542;2023-08-17T14:09:34;9.07;;;6.07;;
64959;SDS011;51487;52.266;10.542;2023-08-17T14:12:00;10.05;;;6.13;;
64959;SDS011;51487;52.266;10.542;2023-08-17T14:14:26;11.07;;;5.90;;
64959;SDS011;51487;52.266;10.542;2023-08-17T14:16:52;8.60;;;5.53;;
64959;SDS011;51487;52.266;10.542;2023-08-17T14:19:17;12.95;;;5.90;;
64959;SDS011;51487;52.266;10.542;2023-08-17T14:21:43;9.85;;;6.03;;
64959;SDS011;51487;52.266;10.542;2023-08-17T14:24:08;11.23;;;6.32;;
64959;SDS011;51487;52.266;10.542;2023-08-17T14:26:34;9.68;;;6.03;;
64959;SDS011;51487;52.266;10.542;2023-08-17T14:29:00;9.13;;;5.68;;
64959;SDS011;51487;52.266;10.542;2023-08-17T14:31:25;8.18;;;5.28;;
64959;SDS011;51487;52.266;10.542;2023-08-17T14:33:51;12.82;;;6.10;;
64959;SDS011;51487;52.266;10.542;2023-08-17T14:36:16;11.27;;;5.78;;
64959;SDS011;51487;52.266;10.542;2023-08-17T14:38:42;9.48;;;6.13;;
64959;SDS011;51487;52.266;10.542;2023-08-17T14:41:07;11.93;;;6.53;;
64959;SDS011;51487;52.266;10.542;2023-08-17T14:43:34;10.68;;;5.88;;